sensor_id;sensor_type;location;lat;lon;timestamp;P1;durP1;ratioP1;P2;durP2;ratioP2
79592;SDS011;69074;45.164;9.704;2024-03-08T00:00:52;43.5;;;38.8;;
79592;SDS011;69074;45.164;9.704;2024-03-08T00:03:17;43.5;;;38.8;;
79592;SDS011;69074;45.164;9.704;2024-03-08T00:05:42;43.5;;;38.8;;
79592;SDS011;69074;45.164;9.704;2024-03-08T00:08:07;43.5;;;38.8;;
79592;SDS011;69074;45.164;9.704;2024-03-08T00:10:32;43.5;;;38.8;;
79592;SDS011;69074;45.164;9.704;2024-03-08T00:12:57;43.5;;;38.8;;
79592;SDS011;69074;45.164;9.704;2024-03-08T00:15:22;43.5;;;38.8;;
79592;SDS011;69074;45.164;9.704;2024-03-08T00:17:47;42.3;;;37.7;;
79592;SDS011;69074;45.164;9.704;2024-03-08T00:20:12;42.3;;;37.7;;
79592;SDS011;69074;45.164;9.704;2024-03-08T00:22:37;42.3;;;37.7;;
79592;SDS011;69074;45.164;9.704;2024-03-08T00:25:02;42.3;;;37.7;;
79592;SDS011;69074;45.164;9.704;2024-03-08T00:27:27;42.3;;;37.7;;
79592;SDS011;69074;45.164;9.704;2024-03-08T00:29:52;42.3;;;37.7;;
79592;SDS011;69074;45.164;9.704;2024-03-08T00:32:17;40.8;;;36.5;;
79592;SDS011;69074;45.164;9.704;2024-03-08T00:34:42;40.8;;;36.5;;
79592;SDS011;69074;45.164;9.704;2024-03-08T00:37:07;40.8;;;36.5;;
79592;SDS011;69074;45.164;9.704;2024-03-08T00:39:32;40.8;;;36.5;;
79592;SDS011;69074;45.164;9.704;2024-03-08T00:41:57;40.8;;;36.5;;
79592;SDS011;69074;45.164;9.704;2024-03-08T00:44:22;40.8;;;36.5;;
79592;SDS011;69074;45.164;9.704;2024-03-08T00:46:47;39.7;;;35.4;;
79592;SDS011;69074;45.164;9.704;2024-03-08T00:49:12;39.7;;;35.4;;
79592;SDS011;69074;45.164;9.704;2024-03-08T00:51:37;39.7;;;35.4;;
79592;SDS011;69074;45.164;9.704;2024-03-08T00:54:02;39.7;;;35.4;;
79592;SDS011;69074;45.164;9.704;2024-03-08T00:56:27;39.7;;;35.4;;
79592;SDS011;69074;45.164;9.704;2024-03-08T00:58:52;39.7;;;35.4;;
79592;SDS011;69074;45.164;9.704;2024-03-08T01:01:18;35.4;;;31.1;;
79592;SDS011;69074;45.164;9.704;2024-03-08T01:03:42;35.4;;;31.1;;
79592;SDS011;69074;45.164;9.704;2024-03-08T01:06:07;35.4;;;31.1;;
79592;SDS011;69074;45.164;9.704;2024-03-08T01:08:32;35.4;;;31.1;;
79592;SDS011;69074;45.164;9.704;2024-03-08T01:10:57;35.4;;;31.1;;
79592;SDS011;69074;45.164;9.704;2024-03-08T01:13:22;35.4;;;31.1;;
79592;SDS011;69074;45.164;9.704;2024-03-08T01:15:47;35.1;;;30.1;;
79592;SDS011;69074;45.164;9.704;2024-03-08T01:18:12;35.1;;;30.1;;
79592;SDS011;69074;45.164;9.704;2024-03-08T01:20:37;35.1;;;30.1;;
79592;SDS011;69074;45.164;9.704;2024-03-08T01:23:02;35.1;;;30.1;;
79592;SDS011;69074;45.164;9.704;2024-03-08T01:25:27;35.1;;;30.1;;
79592;SDS011;69074;45.164;9.704;2024-03-08T01:27:52;35.1;;;30.1;;
79592;SDS011;69074;45.164;9.704;2024-03-08T01:30:17;35.1;;;30.1;;
79592;SDS011;69074;45.164;9.704;2024-03-08T01:32:42;34.6;;;30.8;;
79592;SDS011;69074;45.164;9.704;2024-03-08T01:35:07;34.6;;;30.8;;
79592;SDS011;69074;45.164;9.704;2024-03-08T01:37:32;34.6;;;30.8;;
79592;SDS011;69074;45.164;9.704;2024-03-08T01:39:57;34.6;;;30.8;;
79592;SDS011;69074;45.164;9.704;2024-03-08T01:42:22;34.6;;;30.8;;
79592;SDS011;69074;45.164;9.704;2024-03-08T01:44:47;34.6;;;30.8;;
79592;SDS011;69074;45.164;9.704;2024-03-08T01:47:12;35.0;;;31.2;;
79592;SDS011;69074;45.164;9.704;2024-03-08T01:49:37;35.0;;;31.2;;
79592;SDS011;69074;45.164;9.704;2024-03-08T01:52:02;35.0;;;31.2;;
79592;SDS011;69074;45.164;9.704;2024-03-08T01:54:27;35.0;;;31.2;;
79592;SDS011;69074;45.164;9.704;2024-03-08T01:56:52;35.0;;;31.2;;
79592;SDS011;69074;45.164;9.704;2024-03-08T01:59:17;35.0;;;31.2;;
79592;SDS011;69074;45.164;9.704;2024-03-08T02:01:42;34.2;;;30.3;;
79592;SDS011;69074;45.164;9.704;2024-03-08T02:04:07;34.2;;;30.3;;
79592;SDS011;69074;45.164;9.704;2024-03-08T02:06:32;34.2;;;30.3;;
79592;SDS011;69074;45.164;9.704;2024-03-08T02:08:57;34.2;;;30.3;;
79592;SDS011;69074;45.164;9.704;2024-03-08T02:11:22;34.2;;;30.3;;
79592;SDS011;69074;45.164;9.704;2024-03-08T02:13:47;34.2;;;30.3;;
79592;SDS011;69074;45.164;9.704;2024-03-08T02:16:12;33.9;;;29.0;;
79592;SDS011;69074;45.164;9.704;2024-03-08T02:18:37;33.9;;;29.0;;
79592;SDS011;69074;45.164;9.704;2024-03-08T02:21:03;33.9;;;29.0;;
79592;SDS011;69074;45.164;9.704;2024-03-08T02:23:27;33.9;;;29.0;;
79592;SDS011;69074;45.164;9.704;2024-03-08T02:25:52;33.9;;;29.0;;
79592;SDS011;69074;45.164;9.704;2024-03-08T02:28:17;33.9;;;29.0;;
79592;SDS011;69074;45.164;9.704;2024-03-08T02:30:42;31.1;;;27.8;;
79592;SDS011;69074;45.164;9.704;2024-03-08T02:33:07;31.1;;;27.8;;
79592;SDS011;69074;45.164;9.704;2024-03-08T02:35:32;31.1;;;27.8;;
79592;SDS011;69074;45.164;9.704;2024-03-08T02:37:57;31.1;;;27.8;;
79592;SDS011;69074;45.164;9.704;2024-03-08T02:40:22;31.1;;;27.8;;
79592;SDS011;69074;45.164;9.704;2024-03-08T02:42:47;31.1;;;27.8;;
79592;SDS011;69074;45.164;9.704;2024-03-08T02:45:12;31.1;;;27.8;;
79592;SDS011;69074;45.164;9.704;2024-03-08T02:47:37;29.7;;;26.5;;
79592;SDS011;69074;45.164;9.704;2024-03-08T02:50:02;29.7;;;26.5;;
79592;SDS011;69074;45.164;9.704;2024-03-08T02:52:27;29.7;;;26.5;;
79592;SDS011;69074;45.164;9.704;2024-03-08T02:54:52;29.7;;;26.5;;
79592;SDS011;69074;45.164;9.704;2024-03-08T02:57:17;29.7;;;26.5;;
79592;SDS011;69074;45.164;9.704;2024-03-08T02:59:42;29.7;;;26.5;;
79592;SDS011;69074;45.164;9.704;2024-03-08T03:02:07;27.7;;;24.7;;
79592;SDS011;69074;45.164;9.704;2024-03-08T03:04:32;27.7;;;24.7;;
79592;SDS011;69074;45.164;9.704;2024-03-08T03:06:57;27.7;;;24.7;;
79592;SDS011;69074;45.164;9.704;2024-03-08T03:09:22;27.7;;;24.7;;
79592;SDS011;69074;45.164;9.704;2024-03-08T03:11:47;27.7;;;24.7;;
79592;SDS011;69074;45.164;9.704;2024-03-08T03:14:12;27.7;;;24.7;;
79592;SDS011;69074;45.164;9.704;2024-03-08T03:16:37;25.0;;;22.4;;
79592;SDS011;69074;45.164;9.704;2024-03-08T03:19:02;25.0;;;22.4;;
79592;SDS011;69074;45.164;9.704;2024-03-08T03:21:28;25.0;;;22.4;;
79592;SDS011;69074;45.164;9.704;2024-03-08T03:23:52;25.0;;;22.4;;
79592;SDS011;69074;45.164;9.704;2024-03-08T03:26:17;25.0;;;22.4;;
79592;SDS011;69074;45.164;9.704;2024-03-08T03:28:42;25.0;;;22.4;;
79592;SDS011;69074;45.164;9.704;2024-03-08T03:31:07;23.6;;;20.3;;
79592;SDS011;69074;45.164;9.704;2024-03-08T03:33:32;23.6;;;20.3;;
79592;SDS011;69074;45.164;9.704;2024-03-08T03:35:57;23.6;;;20.3;;
79592;SDS011;69074;45.164;9.704;2024-03-08T03:38:22;23.6;;;20.3;;
79592;SDS011;69074;45.164;9.704;2024-03-08T03:40:47;23.6;;;20.3;;
79592;SDS011;69074;45.164;9.704;2024-03-08T03:43:12;23.6;;;20.3;;
79592;SDS011;69074;45.164;9.704;2024-03-08T03:45:38;21.5;;;19.2;;
79592;SDS011;69074;45.164;9.704;2024-03-08T03:48:02;21.5;;;19.2;;
79592;SDS011;69074;45.164;9.704;2024-03-08T03:50:27;21.5;;;19.2;;
79592;SDS011;69074;45.164;9.704;2024-03-08T03:52:52;21.5;;;19.2;;
79592;SDS011;69074;45.164;9.704;2024-03-08T03:55:17;21.5;;;19.2;;
79592;SDS011;69074;45.164;9.704;2024-03-08T03:57:42;21.5;;;19.2;;
79592;SDS011;69074;45.164;9.704;2024-03-08T04:00:07;21.5;;;19.2;;
79592;SDS011;69074;45.164;9.704;2024-03-08T04:02:32;20.0;;;17.9;;
79592;SDS011;69074;45.164;9.704;2024-03-08T04:04:57;20.0;;;17.9;;
79592;SDS011;69074;45.164;9.704;2024-03-08T04:07:22;20.0;;;17.9;;
79592;SDS011;69074;45.164;9.704;2024-03-08T04:09:47;20.0;;;17.9;;
79592;SDS011;69074;45.164;9.704;2024-03-08T04:12:12;20.0;;;17.9;;
79592;SDS011;69074;45.164;9.704;2024-03-08T04:14:37;20.0;;;17.9;;
79592;SDS011;69074;45.164;9.704;2024-03-08T04:17:02;18.1;;;16.2;;
79592;SDS011;69074;45.164;9.704;2024-03-08T04:19:27;18.1;;;16.2;;
79592;SDS011;69074;45.164;9.704;2024-03-08T04:21:52;18.1;;;16.2;;
79592;SDS011;69074;45.164;9.704;2024-03-08T04:24:17;18.1;;;16.2;;
79592;SDS011;69074;45.164;9.704;2024-03-08T04:26:42;18.1;;;16.2;;
79592;SDS011;69074;45.164;9.704;2024-03-08T04:29:07;18.1;;;16.2;;
79592;SDS011;69074;45.164;9.704;2024-03-08T04:31:32;16.5;;;14.3;;
79592;SDS011;69074;45.164;9.704;2024-03-08T04:33:57;16.5;;;14.3;;
79592;SDS011;69074;45.164;9.704;2024-03-08T04:36:22;16.5;;;14.3;;
79592;SDS011;69074;45.164;9.704;2024-03-08T04:38:47;16.5;;;14.3;;
79592;SDS011;69074;45.164;9.704;2024-03-08T04:41:12;16.5;;;14.3;;
79592;SDS011;69074;45.164;9.704;2024-03-08T04:43:37;16.5;;;14.3;;
79592;SDS011;69074;45.164;9.704;2024-03-08T04:46:02;15.7;;;13.9;;
79592;SDS011;69074;45.164;9.704;2024-03-08T04:48:27;15.7;;;13.9;;
79592;SDS011;69074;45.164;9.704;2024-03-08T04:50:52;15.7;;;13.9;;
79592;SDS011;69074;45.164;9.704;2024-03-08T04:53:17;15.7;;;13.9;;
79592;SDS011;69074;45.164;9.704;2024-03-08T04:55:42;15.7;;;13.9;;
79592;SDS011;69074;45.164;9.704;2024-03-08T04:58:07;15.7;;;13.9;;
79592;SDS011;69074;45.164;9.704;2024-03-08T05:00:32;16.7;;;14.3;;
79592;SDS011;69074;45.164;9.704;2024-03-08T05:02:57;16.7;;;14.3;;
79592;SDS011;69074;45.164;9.704;2024-03-08T05:05:22;16.7;;;14.3;;
79592;SDS011;69074;45.164;9.704;2024-03-08T05:07:47;16.7;;;14.3;;
79592;SDS011;69074;45.164;9.704;2024-03-08T05:10:13;16.7;;;14.3;;
79592;SDS011;69074;45.164;9.704;2024-03-08T05:12:37;16.7;;;14.3;;
79592;SDS011;69074;45.164;9.704;2024-03-08T05:15:03;16.7;;;14.3;;
79592;SDS011;69074;45.164;9.704;2024-03-08T05:17:27;13.0;;;11.7;;
79592;SDS011;69074;45.164;9.704;2024-03-08T05:19:52;13.0;;;11.7;;
79592;SDS011;69074;45.164;9.704;2024-03-08T05:22:17;13.0;;;11.7;;
79592;SDS011;69074;45.164;9.704;2024-03-08T05:24:42;13.0;;;11.7;;
79592;SDS011;69074;45.164;9.704;2024-03-08T05:27:08;13.0;;;11.7;;
79592;SDS011;69074;45.164;9.704;2024-03-08T05:29:32;13.0;;;11.7;;
79592;SDS011;69074;45.164;9.704;2024-03-08T05:31:57;11.6;;;10.4;;
79592;SDS011;69074;45.164;9.704;2024-03-08T05:34:22;11.6;;;10.4;;
79592;SDS011;69074;45.164;9.704;2024-03-08T05:36:48;11.6;;;10.4;;
79592;SDS011;69074;45.164;9.704;2024-03-08T05:39:14;11.6;;;10.4;;
79592;SDS011;69074;45.164;9.704;2024-03-08T05:41:38;11.6;;;10.4;;
79592;SDS011;69074;45.164;9.704;2024-03-08T05:44:03;11.6;;;10.4;;
79592;SDS011;69074;45.164;9.704;2024-03-08T05:46:28;11.3;;;9.5;;
79592;SDS011;69074;45.164;9.704;2024-03-08T05:48:52;11.3;;;9.5;;
79592;SDS011;69074;45.164;9.704;2024-03-08T05:51:18;11.3;;;9.5;;
79592;SDS011;69074;45.164;9.704;2024-03-08T05:53:43;11.3;;;9.5;;
79592;SDS011;69074;45.164;9.704;2024-03-08T05:56:08;11.3;;;9.5;;
79592;SDS011;69074;45.164;9.704;2024-03-08T05:58:33;11.3;;;9.5;;
79592;SDS011;69074;45.164;9.704;2024-03-08T06:00:58;10.1;;;9.1;;
79592;SDS011;69074;45.164;9.704;2024-03-08T06:03:23;10.1;;;9.1;;
79592;SDS011;69074;45.164;9.704;2024-03-08T06:05:48;10.1;;;9.1;;
79592;SDS011;69074;45.164;9.704;2024-03-08T06:08:12;10.1;;;9.1;;
79592;SDS011;69074;45.164;9.704;2024-03-08T06:10:38;10.1;;;9.1;;
79592;SDS011;69074;45.164;9.704;2024-03-08T06:13:03;10.1;;;9.1;;
79592;SDS011;69074;45.164;9.704;2024-03-08T06:15:28;10.1;;;9.1;;
79592;SDS011;69074;45.164;9.704;2024-03-08T06:17:53;9.5;;;8.6;;
79592;SDS011;69074;45.164;9.704;2024-03-08T06:20:18;9.5;;;8.6;;
79592;SDS011;69074;45.164;9.704;2024-03-08T06:22:43;9.5;;;8.6;;
79592;SDS011;69074;45.164;9.704;2024-03-08T06:25:08;9.5;;;8.6;;
79592;SDS011;69074;45.164;9.704;2024-03-08T06:27:33;9.5;;;8.6;;
79592;SDS011;69074;45.164;9.704;2024-03-08T06:29:58;9.5;;;8.6;;
79592;SDS011;69074;45.164;9.704;2024-03-08T06:32:23;8.4;;;7.5;;
79592;SDS011;69074;45.164;9.704;2024-03-08T06:34:48;8.4;;;7.5;;
79592;SDS011;69074;45.164;9.704;2024-03-08T06:37:13;8.4;;;7.5;;
79592;SDS011;69074;45.164;9.704;2024-03-08T06:39:38;8.4;;;7.5;;
79592;SDS011;69074;45.164;9.704;2024-03-08T06:42:03;8.4;;;7.5;;
79592;SDS011;69074;45.164;9.704;2024-03-08T06:44:28;8.4;;;7.5;;
79592;SDS011;69074;45.164;9.704;2024-03-08T06:46:53;8.0;;;6.9;;
79592;SDS011;69074;45.164;9.704;2024-03-08T06:49:18;8.0;;;6.9;;
79592;SDS011;69074;45.164;9.704;2024-03-08T06:51:43;8.0;;;6.9;;
79592;SDS011;69074;45.164;9.704;2024-03-08T06:54:08;8.0;;;6.9;;
79592;SDS011;69074;45.164;9.704;2024-03-08T06:56:33;8.0;;;6.9;;
79592;SDS011;69074;45.164;9.704;2024-03-08T06:58:58;8.0;;;6.9;;
79592;SDS011;69074;45.164;9.704;2024-03-08T07:01:23;9.5;;;7.2;;
79592;SDS011;69074;45.164;9.704;2024-03-08T07:03:48;9.5;;;7.2;;
79592;SDS011;69074;45.164;9.704;2024-03-08T07:06:13;9.5;;;7.2;;
79592;SDS011;69074;45.164;9.704;2024-03-08T07:08:38;9.5;;;7.2;;
79592;SDS011;69074;45.164;9.704;2024-03-08T07:11:03;9.5;;;7.2;;
79592;SDS011;69074;45.164;9.704;2024-03-08T07:13:28;9.5;;;7.2;;
79592;SDS011;69074;45.164;9.704;2024-03-08T07:15:53;7.6;;;6.4;;
79592;SDS011;69074;45.164;9.704;2024-03-08T07:18:18;7.6;;;6.4;;
79592;SDS011;69074;45.164;9.704;2024-03-08T07:20:43;7.6;;;6.4;;
79592;SDS011;69074;45.164;9.704;2024-03-08T07:23:08;7.6;;;6.4;;
79592;SDS011;69074;45.164;9.704;2024-03-08T07:25:33;7.6;;;6.4;;
79592;SDS011;69074;45.164;9.704;2024-03-08T07:27:58;7.6;;;6.4;;
79592;SDS011;69074;45.164;9.704;2024-03-08T07:30:23;7.6;;;6.4;;
79592;SDS011;69074;45.164;9.704;2024-03-08T07:32:48;7.1;;;6.3;;
79592;SDS011;69074;45.164;9.704;2024-03-08T07:35:13;7.1;;;6.3;;
79592;SDS011;69074;45.164;9.704;2024-03-08T07:37:38;7.1;;;6.3;;
79592;SDS011;69074;45.164;9.704;2024-03-08T07:40:03;7.1;;;6.3;;
79592;SDS011;69074;45.164;9.704;2024-03-08T07:42:28;7.1;;;6.3;;
79592;SDS011;69074;45.164;9.704;2024-03-08T07:44:53;7.1;;;6.3;;
79592;SDS011;69074;45.164;9.704;2024-03-08T07:47:18;8.4;;;6.7;;
79592;SDS011;69074;45.164;9.704;2024-03-08T07:49:43;8.4;;;6.7;;
79592;SDS011;69074;45.164;9.704;2024-03-08T07:52:08;8.4;;;6.7;;
79592;SDS011;69074;45.164;9.704;2024-03-08T07:54:33;8.4;;;6.7;;
79592;SDS011;69074;45.164;9.704;2024-03-08T07:56:58;8.4;;;6.7;;
79592;SDS011;69074;45.164;9.704;2024-03-08T07:59:23;8.4;;;6.7;;
79592;SDS011;69074;45.164;9.704;2024-03-08T08:01:48;7.5;;;5.9;;
79592;SDS011;69074;45.164;9.704;2024-03-08T08:04:13;7.5;;;5.9;;
79592;SDS011;69074;45.164;9.704;2024-03-08T08:06:38;7.5;;;5.9;;
79592;SDS011;69074;45.164;9.704;2024-03-08T08:09:03;7.5;;;5.9;;
79592;SDS011;69074;45.164;9.704;2024-03-08T08:11:28;7.5;;;5.9;;
79592;SDS011;69074;45.164;9.704;2024-03-08T08:13:53;7.5;;;5.9;;
79592;SDS011;69074;45.164;9.704;2024-03-08T08:16:18;6.6;;;5.9;;
79592;SDS011;69074;45.164;9.704;2024-03-08T08:18:43;6.6;;;5.9;;
79592;SDS011;69074;45.164;9.704;2024-03-08T08:21:08;6.6;;;5.9;;
79592;SDS011;69074;45.164;9.704;2024-03-08T08:23:33;6.6;;;5.9;;
79592;SDS011;69074;45.164;9.704;2024-03-08T08:25:58;6.6;;;5.9;;
79592;SDS011;69074;45.164;9.704;2024-03-08T08:28:23;6.6;;;5.9;;
79592;SDS011;69074;45.164;9.704;2024-03-08T08:30:48;6.6;;;5.6;;
79592;SDS011;69074;45.164;9.704;2024-03-08T08:33:13;6.6;;;5.6;;
79592;SDS011;69074;45.164;9.704;2024-03-08T08:35:38;6.6;;;5.6;;
79592;SDS011;69074;45.164;9.704;2024-03-08T08:38:03;6.6;;;5.6;;
79592;SDS011;69074;45.164;9.704;2024-03-08T08:40:28;6.6;;;5.6;;
79592;SDS011;69074;45.164;9.704;2024-03-08T08:42:53;6.6;;;5.6;;
79592;SDS011;69074;45.164;9.704;2024-03-08T08:45:18;6.6;;;5.6;;
79592;SDS011;69074;45.164;9.704;2024-03-08T08:47:43;7.8;;;6.8;;
79592;SDS011;69074;45.164;9.704;2024-03-08T08:50:08;7.8;;;6.8;;
79592;SDS011;69074;45.164;9.704;2024-03-08T08:52:33;7.8;;;6.8;;
79592;SDS011;69074;45.164;9.704;2024-03-08T08:54:58;7.8;;;6.8;;
79592;SDS011;69074;45.164;9.704;2024-03-08T08:57:23;7.8;;;6.8;;
79592;SDS011;69074;45.164;9.704;2024-03-08T08:59:48;7.8;;;6.8;;
79592;SDS011;69074;45.164;9.704;2024-03-08T09:02:13;11.2;;;10.0;;
79592;SDS011;69074;45.164;9.704;2024-03-08T09:04:38;11.2;;;10.0;;
79592;SDS011;69074;45.164;9.704;2024-03-08T09:07:03;11.2;;;10.0;;
79592;SDS011;69074;45.164;9.704;2024-03-08T09:09:28;11.2;;;10.0;;
79592;SDS011;69074;45.164;9.704;2024-03-08T09:11:53;11.2;;;10.0;;
79592;SDS011;69074;45.164;9.704;2024-03-08T09:14:18;11.2;;;10.0;;
79592;SDS011;69074;45.164;9.704;2024-03-08T09:16:43;13.2;;;11.0;;
79592;SDS011;69074;45.164;9.704;2024-03-08T09:19:08;13.2;;;11.0;;
79592;SDS011;69074;45.164;9.704;2024-03-08T09:21:33;13.2;;;11.0;;
79592;SDS011;69074;45.164;9.704;2024-03-08T09:23:58;13.2;;;11.0;;
79592;SDS011;69074;45.164;9.704;2024-03-08T09:26:23;13.2;;;11.0;;
79592;SDS011;69074;45.164;9.704;2024-03-08T09:28:48;13.2;;;11.0;;
79592;SDS011;69074;45.164;9.704;2024-03-08T09:31:13;14.2;;;12.0;;
79592;SDS011;69074;45.164;9.704;2024-03-08T09:33:38;14.2;;;12.0;;
79592;SDS011;69074;45.164;9.704;2024-03-08T09:36:03;14.2;;;12.0;;
79592;SDS011;69074;45.164;9.704;2024-03-08T09:38:28;14.2;;;12.0;;
79592;SDS011;69074;45.164;9.704;2024-03-08T09:40:53;14.2;;;12.0;;
79592;SDS011;69074;45.164;9.704;2024-03-08T09:43:18;14.2;;;12.0;;
79592;SDS011;69074;45.164;9.704;2024-03-08T09:45:43;14.9;;;11.8;;
79592;SDS011;69074;45.164;9.704;2024-03-08T09:48:09;14.9;;;11.8;;
79592;SDS011;69074;45.164;9.704;2024-03-08T09:50:33;14.9;;;11.8;;
79592;SDS011;69074;45.164;9.704;2024-03-08T09:52:58;14.9;;;11.8;;
79592;SDS011;69074;45.164;9.704;2024-03-08T09:55:23;14.9;;;11.8;;
79592;SDS011;69074;45.164;9.704;2024-03-08T09:57:48;14.9;;;11.8;;
79592;SDS011;69074;45.164;9.704;2024-03-08T10:00:13;14.9;;;11.8;;
79592;SDS011;69074;45.164;9.704;2024-03-08T10:02:38;12.5;;;11.2;;
79592;SDS011;69074;45.164;9.704;2024-03-08T10:05:03;12.5;;;11.2;;
79592;SDS011;69074;45.164;9.704;2024-03-08T10:07:28;12.5;;;11.2;;
79592;SDS011;69074;45.164;9.704;2024-03-08T10:09:53;12.5;;;11.2;;
79592;SDS011;69074;45.164;9.704;2024-03-08T10:12:18;12.5;;;11.2;;
79592;SDS011;69074;45.164;9.704;2024-03-08T10:14:43;12.5;;;11.2;;
79592;SDS011;69074;45.164;9.704;2024-03-08T10:17:08;13.3;;;11.2;;
79592;SDS011;69074;45.164;9.704;2024-03-08T10:19:33;13.3;;;11.2;;
79592;SDS011;69074;45.164;9.704;2024-03-08T10:21:58;13.3;;;11.2;;
79592;SDS011;69074;45.164;9.704;2024-03-08T10:24:23;13.3;;;11.2;;
79592;SDS011;69074;45.164;9.704;2024-03-08T10:26:48;13.3;;;11.2;;
79592;SDS011;69074;45.164;9.704;2024-03-08T10:29:13;13.3;;;11.2;;
79592;SDS011;69074;45.164;9.704;2024-03-08T10:31:38;13.0;;;10.6;;
79592;SDS011;69074;45.164;9.704;2024-03-08T10:34:03;13.0;;;10.6;;
79592;SDS011;69074;45.164;9.704;2024-03-08T10:36:28;13.0;;;10.6;;
79592;SDS011;69074;45.164;9.704;2024-03-08T10:38:53;13.0;;;10.6;;
79592;SDS011;69074;45.164;9.704;2024-03-08T10:41:18;13.0;;;10.6;;
79592;SDS011;69074;45.164;9.704;2024-03-08T10:43:48;13.0;;;10.6;;
79592;SDS011;69074;45.164;9.704;2024-03-08T10:46:11;12.7;;;10.7;;
79592;SDS011;69074;45.164;9.704;2024-03-08T10:48:35;12.7;;;10.7;;
79592;SDS011;69074;45.164;9.704;2024-03-08T10:50:59;12.7;;;10.7;;
79592;SDS011;69074;45.164;9.704;2024-03-08T10:53:23;12.7;;;10.7;;
79592;SDS011;69074;45.164;9.704;2024-03-08T10:55:48;12.7;;;10.7;;
79592;SDS011;69074;45.164;9.704;2024-03-08T10:58:13;12.7;;;10.7;;
79592;SDS011;69074;45.164;9.704;2024-03-08T11:00:38;10.8;;;9.7;;
79592;SDS011;69074;45.164;9.704;2024-03-08T11:03:03;10.8;;;9.7;;
79592;SDS011;69074;45.164;9.704;2024-03-08T11:05:31;10.8;;;9.7;;
79592;SDS011;69074;45.164;9.704;2024-03-08T11:07:53;10.8;;;9.7;;
79592;SDS011;69074;45.164;9.704;2024-03-08T11:10:18;10.8;;;9.7;;
79592;SDS011;69074;45.164;9.704;2024-03-08T11:12:43;10.8;;;9.7;;
79592;SDS011;69074;45.164;9.704;2024-03-08T11:15:09;10.8;;;9.7;;
79592;SDS011;69074;45.164;9.704;2024-03-08T11:17:44;10.3;;;9.1;;
79592;SDS011;69074;45.164;9.704;2024-03-08T11:19:58;10.3;;;9.1;;
79592;SDS011;69074;45.164;9.704;2024-03-08T11:22:26;10.3;;;9.1;;
79592;SDS011;69074;45.164;9.704;2024-03-08T11:24:48;10.3;;;9.1;;
79592;SDS011;69074;45.164;9.704;2024-03-08T11:27:13;10.3;;;9.1;;
79592;SDS011;69074;45.164;9.704;2024-03-08T11:29:38;10.3;;;9.1;;
79592;SDS011;69074;45.164;9.704;2024-03-08T11:32:04;10.7;;;9.4;;
79592;SDS011;69074;45.164;9.704;2024-03-08T11:34:28;10.7;;;9.4;;
79592;SDS011;69074;45.164;9.704;2024-03-08T11:36:53;10.7;;;9.4;;
79592;SDS011;69074;45.164;9.704;2024-03-08T11:39:18;10.7;;;9.4;;
79592;SDS011;69074;45.164;9.704;2024-03-08T11:41:43;10.7;;;9.4;;
79592;SDS011;69074;45.164;9.704;2024-03-08T11:44:08;10.7;;;9.4;;
79592;SDS011;69074;45.164;9.704;2024-03-08T11:46:33;13.1;;;11.1;;
79592;SDS011;69074;45.164;9.704;2024-03-08T11:48:59;13.1;;;11.1;;
79592;SDS011;69074;45.164;9.704;2024-03-08T11:51:23;13.1;;;11.1;;
79592;SDS011;69074;45.164;9.704;2024-03-08T11:53:49;13.1;;;11.1;;
79592;SDS011;69074;45.164;9.704;2024-03-08T11:56:14;13.1;;;11.1;;
79592;SDS011;69074;45.164;9.704;2024-03-08T11:58:39;13.1;;;11.1;;
79592;SDS011;69074;45.164;9.704;2024-03-08T12:01:04;13.8;;;12.3;;
79592;SDS011;69074;45.164;9.704;2024-03-08T12:03:28;13.8;;;12.3;;
79592;SDS011;69074;45.164;9.704;2024-03-08T12:05:56;13.8;;;12.3;;
79592;SDS011;69074;45.164;9.704;2024-03-08T12:08:18;13.8;;;12.3;;
79592;SDS011;69074;45.164;9.704;2024-03-08T12:10:43;13.8;;;12.3;;
79592;SDS011;69074;45.164;9.704;2024-03-08T12:13:09;13.8;;;12.3;;
79592;SDS011;69074;45.164;9.704;2024-03-08T12:15:33;16.6;;;14.8;;
79592;SDS011;69074;45.164;9.704;2024-03-08T12:17:59;16.6;;;14.8;;
79592;SDS011;69074;45.164;9.704;2024-03-08T12:20:24;16.6;;;14.8;;
79592;SDS011;69074;45.164;9.704;2024-03-08T12:22:49;16.6;;;14.8;;
79592;SDS011;69074;45.164;9.704;2024-03-08T12:25:14;16.6;;;14.8;;
79592;SDS011;69074;45.164;9.704;2024-03-08T12:27:39;16.6;;;14.8;;
79592;SDS011;69074;45.164;9.704;2024-03-08T12:30:15;16.6;;;14.8;;
79592;SDS011;69074;45.164;9.704;2024-03-08T12:32:29;16.8;;;14.4;;
79592;SDS011;69074;45.164;9.704;2024-03-08T12:34:54;16.8;;;14.4;;
79592;SDS011;69074;45.164;9.704;2024-03-08T12:37:19;16.8;;;14.4;;
79592;SDS011;69074;45.164;9.704;2024-03-08T12:39:44;16.8;;;14.4;;
79592;SDS011;69074;45.164;9.704;2024-03-08T12:42:09;16.8;;;14.4;;
79592;SDS011;69074;45.164;9.704;2024-03-08T12:44:34;16.8;;;14.4;;
79592;SDS011;69074;45.164;9.704;2024-03-08T12:46:59;16.4;;;14.3;;
79592;SDS011;69074;45.164;9.704;2024-03-08T12:49:24;16.4;;;14.3;;
79592;SDS011;69074;45.164;9.704;2024-03-08T12:51:49;16.4;;;14.3;;
79592;SDS011;69074;45.164;9.704;2024-03-08T12:54:14;16.4;;;14.3;;
79592;SDS011;69074;45.164;9.704;2024-03-08T12:56:39;16.4;;;14.3;;
79592;SDS011;69074;45.164;9.704;2024-03-08T12:59:04;16.4;;;14.3;;
79592;SDS011;69074;45.164;9.704;2024-03-08T13:01:29;17.4;;;15.7;;
79592;SDS011;69074;45.164;9.704;2024-03-08T13:03:54;17.4;;;15.7;;
79592;SDS011;69074;45.164;9.704;2024-03-08T13:06:19;17.4;;;15.7;;
79592;SDS011;69074;45.164;9.704;2024-03-08T13:08:44;17.4;;;15.7;;
79592;SDS011;69074;45.164;9.704;2024-03-08T13:11:09;17.4;;;15.7;;
79592;SDS011;69074;45.164;9.704;2024-03-08T13:13:34;17.4;;;15.7;;
79592;SDS011;69074;45.164;9.704;2024-03-08T13:15:59;18.2;;;16.2;;
79592;SDS011;69074;45.164;9.704;2024-03-08T13:18:24;18.2;;;16.2;;
79592;SDS011;69074;45.164;9.704;2024-03-08T13:20:49;18.2;;;16.2;;
79592;SDS011;69074;45.164;9.704;2024-03-08T13:23:14;18.2;;;16.2;;
79592;SDS011;69074;45.164;9.704;2024-03-08T13:25:39;18.2;;;16.2;;
79592;SDS011;69074;45.164;9.704;2024-03-08T13:28:04;18.2;;;16.2;;
79592;SDS011;69074;45.164;9.704;2024-03-08T13:30:29;18.2;;;16.2;;
79592;SDS011;69074;45.164;9.704;2024-03-08T13:32:54;17.1;;;15.4;;
79592;SDS011;69074;45.164;9.704;2024-03-08T13:35:19;17.1;;;15.4;;
79592;SDS011;69074;45.164;9.704;2024-03-08T13:37:44;17.1;;;15.4;;
79592;SDS011;69074;45.164;9.704;2024-03-08T13:40:09;17.1;;;15.4;;
79592;SDS011;69074;45.164;9.704;2024-03-08T13:42:34;17.1;;;15.4;;
79592;SDS011;69074;45.164;9.704;2024-03-08T13:44:59;17.1;;;15.4;;
79592;SDS011;69074;45.164;9.704;2024-03-08T13:47:24;19.6;;;17.6;;
79592;SDS011;69074;45.164;9.704;2024-03-08T13:49:49;19.6;;;17.6;;
79592;SDS011;69074;45.164;9.704;2024-03-08T13:52:14;19.6;;;17.6;;
79592;SDS011;69074;45.164;9.704;2024-03-08T13:54:39;19.6;;;17.6;;
79592;SDS011;69074;45.164;9.704;2024-03-08T13:57:04;19.6;;;17.6;;
79592;SDS011;69074;45.164;9.704;2024-03-08T13:59:29;19.6;;;17.6;;
79592;SDS011;69074;45.164;9.704;2024-03-08T14:01:54;20.3;;;17.7;;
79592;SDS011;69074;45.164;9.704;2024-03-08T14:04:19;20.3;;;17.7;;
79592;SDS011;69074;45.164;9.704;2024-03-08T14:06:44;20.3;;;17.7;;
79592;SDS011;69074;45.164;9.704;2024-03-08T14:09:09;20.3;;;17.7;;
79592;SDS011;69074;45.164;9.704;2024-03-08T14:11:34;20.3;;;17.7;;
79592;SDS011;69074;45.164;9.704;2024-03-08T14:13:59;20.3;;;17.7;;
79592;SDS011;69074;45.164;9.704;2024-03-08T14:16:24;20.9;;;18.7;;
79592;SDS011;69074;45.164;9.704;2024-03-08T14:18:49;20.9;;;18.7;;
79592;SDS011;69074;45.164;9.704;2024-03-08T14:21:14;20.9;;;18.7;;
79592;SDS011;69074;45.164;9.704;2024-03-08T14:23:40;20.9;;;18.7;;
79592;SDS011;69074;45.164;9.704;2024-03-08T14:26:04;20.9;;;18.7;;
79592;SDS011;69074;45.164;9.704;2024-03-08T14:28:29;20.9;;;18.7;;
79592;SDS011;69074;45.164;9.704;2024-03-08T14:30:54;25.9;;;23.2;;
79592;SDS011;69074;45.164;9.704;2024-03-08T14:33:19;25.9;;;23.2;;
79592;SDS011;69074;45.164;9.704;2024-03-08T14:35:44;25.9;;;23.2;;
79592;SDS011;69074;45.164;9.704;2024-03-08T14:38:09;25.9;;;23.2;;